Time;durP1;ratioP1;P1;durP2;ratioP2;P2;SDS_P1;SDS_P2;PMS_P1;PMS_P2;Temp;Humidity;BMP_temperature;BMP_pressure;BME280_temperature;BME280_humidity;BME280_pressure;Samples;Min_cycle;Max_cycle;Signal;HPM_P1;HPM_P2
2022/09/13 00:01:17;;;;;;;6.47;3.75;;;19.00;99.90;;;;;;5090604;28;20099;-86
2022/09/13 00:03:43;;;;;;;2.63;2.42;;;19.00;99.90;;;;;;5107739;28;20052;-86
2022/09/13 00:06:14;;;;;;;2.63;2.42;;;19.00;99.90;;;;;;5090502;28;20027;-86
2022/09/13 00:08:41;;;;;;;2.67;2.47;;;18.90;99.90;;;;;;5107454;28;20128;-86
2022/09/13 00:11:13;;;;;;;2.75;2.50;;;18.90;99.90;;;;;;5107639;28;20036;-86
2022/09/13 00:13:39;;;;;;;3.78;2.92;;;18.90;99.90;;;;;;5113645;28;20031;-86
2022/09/13 00:16:14;;;;;;;3.20;2.75;;;18.90;99.90;;;;;;5107022;28;20103;-86
2022/09/13 00:18:40;;;;;;;2.85;2.65;;;18.90;99.90;;;;;;5106407;28;20032;-86
2022/09/13 00:21:12;;;;;;;4.97;3.00;;;18.90;99.90;;;;;;5108707;28;20024;-86
2022/09/13 00:23:40;;;;;;;5.07;2.72;;;18.90;99.90;;;;;;5108131;28;20094;-86
2022/09/13 00:26:12;;;;;;;3.25;2.35;;;18.90;99.90;;;;;;5107290;28;20450;-86
2022/09/13 00:28:39;;;;;;;2.65;2.45;;;18.90;99.90;;;;;;5108494;28;20028;-86
2022/09/13 00:31:07;;;;;;;3.90;2.00;;;18.90;99.90;;;;;;5127276;28;20359;-86
2022/09/13 00:33:34;;;;;;;2.40;2.22;;;18.90;99.90;;;;;;5128560;28;20028;-86
2022/09/13 00:36:10;;;;;;;3.40;2.95;;;18.90;99.90;;;;;;5128805;28;20538;-86
2022/09/13 00:38:38;;;;;;;5.53;3.35;;;18.90;99.90;;;;;;5127238;28;20028;-85
2022/09/13 00:41:10;;;;;;;3.65;2.55;;;18.90;99.90;;;;;;5127229;28;20050;-86
2022/09/13 00:43:47;;;;;;;2.60;2.40;;;18.90;99.90;;;;;;5109957;28;20030;-85
2022/09/13 00:46:38;;;;;;;3.25;2.97;;;18.80;99.90;;;;;;5128430;28;20031;-86
2022/09/13 00:49:30;;;;;;;5.50;3.65;;;18.90;99.90;;;;;;5110111;28;20031;-86
2022/09/13 00:52:06;;;;;;;7.10;3.22;;;18.80;99.90;;;;;;5126994;28;20083;-86
2022/09/13 00:54:40;;;;;;;4.25;3.55;;;18.80;99.90;;;;;;5127188;28;20035;-86
2022/09/13 00:57:07;;;;;;;5.13;3.03;;;18.80;99.90;;;;;;5128363;28;20031;-86
2022/09/13 00:59:41;;;;;;;2.58;2.22;;;18.80;99.90;;;;;;5128056;28;20448;-86
2022/09/13 01:02:08;;;;;;;3.60;2.72;;;18.80;99.90;;;;;;5109803;28;20050;-86
2022/09/13 01:04:36;;;;;;;4.07;3.70;;;18.80;99.90;;;;;;5106370;28;20039;-86
2022/09/13 01:07:05;;;;;;;2.60;2.40;;;18.80;99.90;;;;;;5107672;28;20364;-86
2022/09/13 01:09:35;;;;;;;2.90;2.70;;;18.80;99.90;;;;;;5123465;28;20553;-86
2022/09/13 01:12:30;;;;;;;3.37;3.07;;;18.80;99.90;;;;;;5106210;28;20020;-86
2022/09/13 01:14:59;;;;;;;5.85;3.30;;;18.70;99.90;;;;;;5123582;28;20382;-86
2022/09/13 01:17:27;;;;;;;6.00;2.90;;;18.80;99.90;;;;;;5126533;28;20034;-86
2022/09/13 01:19:53;;;;;;;2.63;2.45;;;18.80;99.90;;;;;;5109255;28;20041;-85
2022/09/13 01:22:46;;;;;;;3.17;2.80;;;18.70;99.90;;;;;;5126281;28;20027;-86
2022/09/13 01:25:37;;;;;;;3.35;3.15;;;18.70;99.90;;;;;;5126258;28;20042;-86
2022/09/13 01:28:15;;;;;;;4.13;3.63;;;18.70;99.90;;;;;;5109423;28;20027;-86
2022/09/13 01:30:58;;;;;;;3.30;2.65;;;18.70;99.90;;;;;;5108092;28;20035;-86
2022/09/13 01:33:52;;;;;;;4.57;3.08;;;18.70;99.90;;;;;;5109037;28;20397;-86
2022/09/13 01:36:55;;;;;;;3.22;2.80;;;18.70;99.90;;;;;;5126281;28;20027;-86
2022/09/13 01:39:49;;;;;;;4.20;2.78;;;18.70;99.90;;;;;;5125967;28;20023;-86
2022/09/13 01:42:46;;;;;;;4.63;3.13;;;18.70;99.90;;;;;;5109073;28;20048;-86
2022/09/13 01:45:21;;;;;;;3.42;3.00;;;18.70;99.90;;;;;;5124648;28;20036;-86
2022/09/13 01:47:57;;;;;;;3.92;3.22;;;18.70;99.90;;;;;;5127154;28;20035;-86
2022/09/13 01:50:41;;;;;;;5.93;3.97;;;18.70;99.90;;;;;;5126034;28;20470;-86
2022/09/13 01:53:30;;;;;;;2.85;2.65;;;18.70;99.90;;;;;;5125838;28;20023;-86
2022/09/13 01:56:24;;;;;;;3.75;3.40;;;18.70;99.90;;;;;;5121141;28;20032;-86
2022/09/13 01:58:58;;;;;;;11.80;3.97;;;18.70;99.90;;;;;;5125548;28;20027;-86
2022/09/13 02:01:32;;;;;;;3.45;3.17;;;18.70;99.90;;;;;;5125739;28;20023;-86
2022/09/13 02:04:15;;;;;;;3.95;3.17;;;18.60;99.90;;;;;;5127184;28;20087;-86
2022/09/13 02:07:01;;;;;;;5.70;3.33;;;18.70;99.90;;;;;;5125628;28;20031;-86
2022/09/13 02:09:32;;;;;;;4.75;2.80;;;18.60;99.90;;;;;;5125799;28;20024;-86
2022/09/13 02:12:12;;;;;;;3.75;3.45;;;18.70;99.90;;;;;;5128405;28;20031;-87
2022/09/13 02:14:42;;;;;;;3.40;3.13;;;18.60;99.90;;;;;;5125582;28;20051;-86
2022/09/13 02:17:19;;;;;;;2.90;2.70;;;18.60;99.90;;;;;;5126716;28;20028;-86
2022/09/13 02:19:51;;;;;;;3.17;2.88;;;18.60;99.90;;;;;;5125420;28;20024;-86
2022/09/13 02:22:24;;;;;;;3.55;3.25;;;18.60;99.90;;;;;;5125720;28;20026;-86
2022/09/13 02:24:56;;;;;;;4.60;3.83;;;18.60;99.90;;;;;;5125696;28;20107;-86
2022/09/13 02:27:28;;;;;;;4.53;3.20;;;18.60;99.90;;;;;;5142608;27;20031;-86
2022/09/13 02:30:01;;;;;;;3.50;2.70;;;18.60;99.90;;;;;;5123907;28;20121;-86
2022/09/13 02:32:40;;;;;;;3.08;2.65;;;18.60;99.90;;;;;;5105075;28;20088;-86
2022/09/13 02:35:20;;;;;;;3.53;3.05;;;18.60;99.90;;;;;;5106283;28;20047;-86
2022/09/13 02:37:56;;;;;;;3.13;2.53;;;18.60;99.90;;;;;;5104881;28;20024;-86
2022/09/13 02:40:29;;;;;;;3.72;3.33;;;18.60;99.90;;;;;;5106174;28;20028;-86
2022/09/13 02:43:03;;;;;;;2.92;2.72;;;18.60;99.90;;;;;;5094513;28;20024;-86
2022/09/13 02:45:37;;;;;;;2.97;2.67;;;18.60;99.90;;;;;;5129479;28;20028;-86
2022/09/13 02:48:15;;;;;;;2.92;2.67;;;18.60;99.90;;;;;;5109153;28;20028;-86
2022/09/13 02:50:49;;;;;;;2.67;2.47;;;18.60;99.90;;;;;;5110263;28;20058;-86
2022/09/13 02:53:39;;;;;;;5.07;2.67;;;18.60;99.90;;;;;;5110224;28;20024;-86
2022/09/13 02:56:20;;;;;;;2.50;2.13;;;18.60;99.90;;;;;;5110347;28;20043;-86
2022/09/13 02:59:05;;;;;;;2.65;2.38;;;18.60;99.90;;;;;;5122140;28;20039;-86
2022/09/13 03:01:34;;;;;;;3.47;3.17;;;18.60;99.90;;;;;;5130449;28;20024;-87
2022/09/13 03:03:59;;;;;;;4.45;3.03;;;18.60;99.90;;;;;;5128964;28;20416;-86
2022/09/13 03:06:27;;;;;;;2.70;2.50;;;18.60;99.90;;;;;;5112199;28;20095;-86
2022/09/13 03:08:55;;;;;;;3.10;2.72;;;18.60;99.90;;;;;;5112167;28;20460;-86
2022/09/13 03:11:36;;;;;;;3.35;3.08;;;18.60;99.90;;;;;;5130336;28;20410;-86
2022/09/13 03:14:16;;;;;;;4.35;3.00;;;18.60;99.90;;;;;;5128732;28;20032;-86
2022/09/13 03:17:13;;;;;;;2.35;2.15;;;18.50;99.90;;;;;;5128728;28;20081;-86
2022/09/13 03:20:03;;;;;;;3.63;2.80;;;18.60;99.90;;;;;;5127905;28;20027;-86
2022/09/13 03:22:32;;;;;;;3.63;3.33;;;18.50;99.90;;;;;;5128725;28;20030;-86
2022/09/13 03:25:12;;;;;;;3.17;2.83;;;18.50;99.90;;;;;;5129950;28;20118;-86
2022/09/13 03:27:53;;;;;;;3.15;2.85;;;18.50;99.90;;;;;;5128754;28;20035;-86
2022/09/13 03:30:19;;;;;;;4.25;3.13;;;18.50;99.90;;;;;;5128735;28;20035;-86
2022/09/13 03:33:09;;;;;;;2.80;2.67;;;18.60;99.90;;;;;;5111582;28;20042;-85
2022/09/13 03:35:35;;;;;;;;;;;18.50;99.90;;;;;;5129241;28;20031;-86
2022/09/13 03:38:13;;;;;;;2.85;2.65;;;18.50;99.90;;;;;;5128485;28;19954;-86
2022/09/13 03:41:14;;;;;;;3.33;3.03;;;18.50;99.90;;;;;;5111453;28;20027;-86
2022/09/13 03:43:55;;;;;;;3.42;2.53;;;18.50;99.90;;;;;;5116297;28;20043;-86
2022/09/13 03:46:31;;;;;;;3.65;3.15;;;18.50;99.90;;;;;;5129554;28;20027;-86
2022/09/13 03:49:02;;;;;;;3.70;2.72;;;18.50;99.90;;;;;;5129528;28;20031;-86
2022/09/13 03:51:28;;;;;;;3.78;3.17;;;18.50;99.90;;;;;;5129575;28;20032;-86
2022/09/13 03:54:01;;;;;;;6.82;3.42;;;18.50;99.90;;;;;;5128298;28;20058;-86
2022/09/13 03:56:26;;;;;;;3.10;2.55;;;18.50;99.90;;;;;;5129343;28;20024;-86
2022/09/13 03:58:52;;;;;;;3.00;2.80;;;18.50;99.90;;;;;;5127906;28;20032;-86
2022/09/13 04:01:23;;;;;;;5.68;3.63;;;18.50;99.90;;;;;;5111282;28;20102;-86
2022/09/13 04:03:49;;;;;;;2.80;2.60;;;18.50;99.90;;;;;;5129478;27;20031;-86
2022/09/13 04:06:15;;;;;;;2.88;2.67;;;18.50;99.90;;;;;;5128980;28;20032;-86
2022/09/13 04:08:43;;;;;;;3.65;2.53;;;18.50;99.90;;;;;;5128037;28;20032;-86
2022/09/13 04:11:09;;;;;;;2.88;2.33;;;18.50;99.90;;;;;;5128025;28;20032;-85
2022/09/13 04:13:36;;;;;;;2.60;2.40;;;18.50;99.90;;;;;;5127478;28;20043;-86
2022/09/13 04:16:03;;;;;;;4.68;2.75;;;18.50;99.90;;;;;;5127572;28;20024;-86
2022/09/13 04:18:30;;;;;;;2.65;2.45;;;18.50;99.90;;;;;;5127893;28;20061;-86
2022/09/13 04:20:58;;;;;;;2.90;2.70;;;18.50;99.90;;;;;;5127500;28;20027;-86
2022/09/13 04:23:26;;;;;;;4.40;2.90;;;18.50;99.90;;;;;;5127320;28;20044;-86
2022/09/13 04:25:52;;;;;;;3.97;3.60;;;18.50;99.90;;;;;;5127661;28;20031;-86
2022/09/13 04:28:19;;;;;;;3.55;3.20;;;18.40;99.90;;;;;;5127103;28;20027;-86
2022/09/13 04:30:48;;;;;;;2.90;2.70;;;18.40;99.90;;;;;;5127573;28;20020;-86
2022/09/13 04:33:16;;;;;;;3.10;2.80;;;18.50;99.90;;;;;;5127543;28;20042;-86
2022/09/13 04:35:42;;;;;;;4.65;2.85;;;18.50;99.90;;;;;;5128656;28;20035;-86
2022/09/13 04:38:08;;;;;;;3.92;3.28;;;18.40;99.90;;;;;;5128683;28;20012;-86
2022/09/13 04:40:36;;;;;;;3.72;3.13;;;18.40;99.90;;;;;;5127439;28;20027;-86
2022/09/13 04:43:02;;;;;;;3.75;3.42;;;18.40;99.90;;;;;;5126852;28;20027;-86
2022/09/13 04:45:28;;;;;;;2.22;2.13;;;18.50;99.90;;;;;;5127223;28;20032;-86
2022/09/13 04:47:55;;;;;;;2.83;2.63;;;18.40;99.90;;;;;;5127219;28;20138;-85
2022/09/13 04:50:22;;;;;;;5.47;3.15;;;18.40;99.90;;;;;;5128479;28;20059;-86
2022/09/13 04:52:49;;;;;;;3.20;2.78;;;18.50;99.90;;;;;;5128125;28;20019;-86
2022/09/13 04:55:15;;;;;;;3.47;2.92;;;18.40;99.90;;;;;;5128367;28;20053;-86
2022/09/13 04:57:41;;;;;;;3.08;2.65;;;18.40;99.90;;;;;;5127856;28;20032;-86
2022/09/13 05:00:08;;;;;;;2.63;2.42;;;18.40;99.90;;;;;;5126883;28;20053;-85
2022/09/13 05:02:34;;;;;;;3.30;2.60;;;18.40;99.90;;;;;;5128004;28;20032;-86
2022/09/13 05:05:00;;;;;;;5.88;3.08;;;18.40;99.90;;;;;;5126636;28;20032;-86
2022/09/13 05:07:26;;;;;;;2.67;2.47;;;18.40;99.90;;;;;;5126573;28;20031;-86
2022/09/13 05:09:51;;;;;;;4.80;2.42;;;18.40;99.90;;;;;;5121363;28;20050;-86
2022/09/13 05:12:17;;;;;;;4.38;2.97;;;18.40;99.90;;;;;;5107964;27;20095;-85
2022/09/13 05:14:43;;;;;;;9.50;3.55;;;18.40;99.90;;;;;;5101063;28;20098;-85
2022/09/13 05:17:09;;;;;;;2.97;2.50;;;;;;;;;;5108896;28;20027;-86
2022/09/13 05:19:35;;;;;;;3.05;2.67;;;18.40;99.90;;;;;;5123946;27;20031;-85
2022/09/13 05:22:02;;;;;;;4.72;3.05;;;;;;;;;;5074732;28;20023;-86
2022/09/13 05:24:28;;;;;;;4.03;3.17;;;18.40;99.90;;;;;;5088999;28;20047;-86
2022/09/13 05:26:53;;;;;;;3.10;2.35;;;18.40;99.90;;;;;;5122408;27;20051;-85
2022/09/13 05:29:20;;;;;;;3.03;2.67;;;;;;;;;;5119836;28;20040;-86
2022/09/13 05:31:45;;;;;;;3.20;2.30;;;18.40;99.90;;;;;;5127358;27;20413;-86
2022/09/13 05:34:15;;;;;;;2.63;2.42;;;18.40;99.90;;;;;;5098215;28;20092;-86
2022/09/13 05:36:41;;;;;;;2.65;2.42;;;18.30;99.90;;;;;;5106509;28;20016;-86
2022/09/13 05:39:12;;;;;;;8.13;3.50;;;18.30;99.90;;;;;;5104846;28;20028;-85
2022/09/13 05:41:38;;;;;;;5.32;3.30;;;18.30;99.90;;;;;;5105100;28;20060;-85
2022/09/13 05:44:04;;;;;;;6.68;3.13;;;18.30;99.90;;;;;;5115849;28;20040;-85
2022/09/13 05:46:29;;;;;;;3.75;2.85;;;18.30;99.90;;;;;;5108827;28;20037;-85
2022/09/13 05:48:59;;;;;;;3.50;2.90;;;18.30;99.90;;;;;;5125625;28;20031;-85
2022/09/13 05:51:26;;;;;;;5.50;4.38;;;18.30;99.90;;;;;;5108533;28;20110;-85
2022/09/13 05:53:53;;;;;;;4.07;3.35;;;18.30;99.90;;;;;;5108473;28;20046;-86
2022/09/13 05:56:22;;;;;;;4.03;3.45;;;18.30;99.90;;;;;;5120035;28;20363;-86
2022/09/13 05:58:50;;;;;;;3.33;3.00;;;18.30;99.90;;;;;;5121972;28;20017;-85
2022/09/13 06:01:21;;;;;;;4.20;2.80;;;18.30;99.90;;;;;;5099866;27;20012;-86
2022/09/13 06:03:48;;;;;;;6.03;3.08;;;18.30;99.90;;;;;;5105001;28;20035;-84
2022/09/13 06:06:14;;;;;;;4.03;3.47;;;18.30;99.90;;;;;;5116426;27;20028;-86
2022/09/13 06:08:40;;;;;;;3.78;3.40;;;18.30;99.90;;;;;;5120342;28;20088;-86
2022/09/13 06:11:09;;;;;;;3.03;2.83;;;18.20;99.90;;;;;;5125701;27;20042;-85
2022/09/13 06:13:36;;;;;;;2.95;2.80;;;18.30;99.90;;;;;;5115836;27;20490;-85
2022/09/13 06:16:04;;;;;;;9.40;4.20;;;18.30;99.90;;;;;;5084763;28;20027;-85
2022/09/13 06:18:30;;;;;;;4.93;3.63;;;;;;;;;;5120686;27;20046;-85
2022/09/13 06:21:16;;;;;;;4.45;3.58;;;18.10;99.90;;;;;;5116440;28;20055;-86
2022/09/13 06:23:44;;;;;;;4.53;3.08;;;18.30;99.90;;;;;;5096833;28;20481;-86
2022/09/13 06:26:13;;;;;;;7.00;3.40;;;18.30;99.90;;;;;;5125280;28;20108;-88
2022/09/13 06:28:39;;;;;;;6.35;3.38;;;;;;;;;;5108114;28;20049;-88
2022/09/13 06:31:11;;;;;;;2.75;2.55;;;18.30;99.90;;;;;;5133142;27;20397;-88
2022/09/13 06:33:39;;;;;;;3.45;3.15;;;18.40;99.90;;;;;;5120944;28;20028;-88
2022/09/13 06:36:19;;;;;;;3.92;3.63;;;18.30;99.90;;;;;;5098572;28;20023;-87
2022/09/13 06:38:47;;;;;;;6.18;4.22;;;18.40;99.90;;;;;;5126364;28;20030;-88
2022/09/13 06:41:17;;;;;;;7.72;3.28;;;18.30;99.90;;;;;;5114250;28;20034;-87
2022/09/13 06:43:43;;;;;;;3.08;2.78;;;18.30;99.90;;;;;;5122240;28;20043;-87
2022/09/13 06:46:15;;;;;;;9.93;3.90;;;18.30;99.90;;;;;;5126344;28;20027;-87
2022/09/13 06:48:43;;;;;;;8.80;3.17;;;18.40;99.90;;;;;;5125148;28;20040;-84
2022/09/13 06:51:11;;;;;;;3.72;3.42;;;18.30;99.90;;;;;;5125899;28;20028;-85
2022/09/13 06:53:39;;;;;;;5.00;3.53;;;18.30;99.90;;;;;;5125187;28;20423;-85
2022/09/13 06:56:07;;;;;;;4.13;2.83;;;18.30;99.90;;;;;;5125207;28;20786;-85
2022/09/13 06:58:34;;;;;;;6.07;3.88;;;18.40;99.90;;;;;;5138188;28;20019;-85
2022/09/13 07:01:16;;;;;;;3.00;2.75;;;18.40;99.90;;;;;;5147086;27;20035;-86
2022/09/13 07:03:48;;;;;;;5.72;3.28;;;18.40;99.90;;;;;;5138924;28;20074;-85
2022/09/13 07:06:16;;;;;;;3.83;3.28;;;18.40;99.90;;;;;;5124865;28;20028;-85
2022/09/13 07:08:43;;;;;;;3.38;2.92;;;18.40;99.90;;;;;;5106828;28;20030;-87
2022/09/13 07:11:14;;;;;;;5.35;3.40;;;18.40;99.90;;;;;;5140705;28;20053;-87
2022/09/13 07:13:40;;;;;;;3.08;2.78;;;18.40;99.90;;;;;;5134286;27;20112;-87
2022/09/13 07:16:09;;;;;;;4.80;3.35;;;18.40;99.90;;;;;;5125581;28;20020;-87
2022/09/13 07:18:35;;;;;;;3.55;3.30;;;18.40;99.90;;;;;;5126391;28;20456;-86
2022/09/13 07:21:05;;;;;;;3.40;2.92;;;18.40;99.90;;;;;;5126857;28;20043;-87
2022/09/13 07:23:33;;;;;;;4.22;3.28;;;18.50;99.90;;;;;;5126196;28;20035;-87
2022/09/13 07:26:04;;;;;;;3.63;3.33;;;18.50;99.90;;;;;;5125214;28;20052;-88
2022/09/13 07:28:45;;;;;;;5.07;3.28;;;18.50;99.90;;;;;;5128309;28;20107;-88
2022/09/13 07:31:19;;;;;;;4.32;3.90;;;18.50;99.90;;;;;;5129991;27;20104;-88
2022/09/13 07:33:46;;;;;;;9.98;3.30;;;18.50;99.90;;;;;;5130383;28;20035;-88
2022/09/13 07:36:13;;;;;;;5.03;3.53;;;18.60;99.90;;;;;;5138386;27;20016;-88
2022/09/13 07:38:41;;;;;;;4.18;3.75;;;18.60;99.90;;;;;;5137419;27;20031;-88
2022/09/13 07:41:11;;;;;;;2.60;2.40;;;18.60;99.90;;;;;;5130851;27;20026;-89
2022/09/13 07:43:38;;;;;;;4.72;2.90;;;18.60;99.90;;;;;;5111766;28;20092;-88
2022/09/13 07:46:05;;;;;;;3.13;2.90;;;18.60;99.90;;;;;;5129968;28;20083;-89
2022/09/13 07:48:33;;;;;;;4.25;3.25;;;18.70;99.90;;;;;;5128733;28;20106;-92
2022/09/13 07:51:02;;;;;;;4.60;3.67;;;18.70;99.90;;;;;;5138415;27;20115;-89
2022/09/13 07:53:28;;;;;;;5.05;3.28;;;18.70;99.90;;;;;;5148913;27;20019;-89
2022/09/13 07:55:58;;;;;;;3.25;3.05;;;18.70;99.90;;;;;;5149192;27;20028;-93
2022/09/13 07:58:24;;;;;;;5.25;3.95;;;18.70;99.90;;;;;;5132106;27;20046;-89
2022/09/13 08:00:50;;;;;;;3.80;3.42;;;18.70;99.90;;;;;;5148680;27;20015;-89
2022/09/13 08:03:16;;;;;;;3.30;3.08;;;18.70;99.90;;;;;;5132052;27;20023;-87
2022/09/13 08:05:42;;;;;;;4.50;3.65;;;18.80;99.90;;;;;;5131936;27;20055;-88
2022/09/13 08:08:08;;;;;;;11.50;3.50;;;18.80;99.90;;;;;;5149067;27;20540;-87
2022/09/13 08:10:34;;;;;;;4.22;3.83;;;18.80;99.90;;;;;;5150284;27;20075;-88
2022/09/13 08:13:00;;;;;;;5.75;3.92;;;18.80;99.90;;;;;;5148820;27;20412;-88
2022/09/13 08:15:26;;;;;;;5.28;4.32;;;18.90;99.90;;;;;;5131644;27;20035;-88
2022/09/13 08:18:01;;;;;;;11.45;5.03;;;18.90;99.90;;;;;;5149804;27;20070;-91
2022/09/13 08:20:28;;;;;;;3.55;3.30;;;;;;;;;;5111732;28;20072;-87
2022/09/13 08:23:47;;;;;;;;;;;;;;;;;;;;;
2022/09/13 08:26:55;;;;;;;4.22;3.22;;;19.00;99.90;;;;;;5126612;28;20043;-92
2022/09/13 08:29:29;;;;;;;5.32;4.10;;;;;;;;;;5104336;28;20024;-88
2022/09/13 08:31:55;;;;;;;7.13;4.72;;;;;;;;;;5127233;28;20087;-87
2022/09/13 08:34:21;;;;;;;4.07;3.67;;;;;;;;;;5127486;28;20038;-88
2022/09/13 08:36:47;;;;;;;3.53;3.10;;;;;;;;;;5127810;28;20024;-87
2022/09/13 08:39:13;;;;;;;4.60;4.05;;;19.10;99.90;;;;;;5126682;28;20039;-88
2022/09/13 08:41:39;;;;;;;5.25;3.83;;;19.10;99.90;;;;;;5127125;28;20024;-87
2022/09/13 08:44:13;;;;;;;7.70;5.68;;;19.10;99.90;;;;;;5128729;28;20115;-88
2022/09/13 08:46:46;;;;;;;7.30;5.13;;;19.20;99.90;;;;;;5127709;28;20039;-89
2022/09/13 08:49:17;;;;;;;7.03;4.90;;;19.20;99.90;;;;;;5127431;28;20057;-88
2022/09/13 08:51:47;;;;;;;6.03;4.90;;;19.30;99.90;;;;;;5126658;27;20035;-92
2022/09/13 08:54:15;;;;;;;17.83;6.03;;;19.30;99.90;;;;;;5127307;27;20032;-87
2022/09/13 08:56:52;;;;;;;7.18;5.28;;;19.40;99.90;;;;;;5127171;28;20035;-87
2022/09/13 08:59:46;;;;;;;12.45;5.55;;;19.40;99.90;;;;;;5126828;28;20039;-87
2022/09/13 09:02:24;;;;;;;5.65;5.10;;;19.40;99.90;;;;;;5126337;27;20023;-87
2022/09/13 09:05:00;;;;;;;15.77;5.30;;;19.40;99.90;;;;;;5146370;27;20035;-91
2022/09/13 09:07:50;;;;;;;8.32;5.20;;;19.50;99.90;;;;;;5113244;28;20049;-89
2022/09/13 09:10:26;;;;;;;10.02;7.10;;;19.50;99.90;;;;;;5107261;28;20035;-88
2022/09/13 09:13:01;;;;;;;7.00;5.43;;;19.60;99.90;;;;;;5114701;28;20028;-87
2022/09/13 09:15:45;;;;;;;9.50;5.72;;;19.60;99.90;;;;;;5127713;28;20034;-88
2022/09/13 09:18:23;;;;;;;11.52;5.05;;;19.60;99.90;;;;;;5127286;28;20030;-88
2022/09/13 09:20:51;;;;;;;8.82;6.13;;;19.60;99.90;;;;;;5126129;28;20038;-87
2022/09/13 09:23:20;;;;;;;7.13;6.35;;;19.70;99.90;;;;;;5108750;28;20031;-87
2022/09/13 09:25:47;;;;;;;7.10;5.10;;;19.70;99.90;;;;;;5126110;28;20092;-88
2022/09/13 09:28:16;;;;;;;9.10;7.55;;;19.80;99.90;;;;;;5127368;28;20059;-87
2022/09/13 09:31:03;;;;;;;6.93;6.25;;;19.70;99.90;;;;;;5127411;28;20032;-88
2022/09/13 09:33:45;;;;;;;18.13;7.05;;;19.80;99.90;;;;;;5119970;28;20463;-87
2022/09/13 09:36:31;;;;;;;6.63;6.05;;;19.80;99.90;;;;;;5125805;28;20065;-87
2022/09/13 09:38:57;;;;;;;7.93;5.05;;;19.90;99.90;;;;;;5126298;28;20412;-87
2022/09/13 09:41:27;;;;;;;6.40;5.80;;;19.90;99.90;;;;;;5125903;28;20019;-88
2022/09/13 09:44:12;;;;;;;12.32;5.43;;;19.90;99.90;;;;;;5127355;27;20089;-92
2022/09/13 09:46:40;;;;;;;11.07;6.30;;;20.00;99.90;;;;;;5109495;28;20027;-89
2022/09/13 09:52:10;;;;;;;7.07;5.07;;;20.10;99.90;;;;;;5125660;28;20058;-93
2022/09/13 09:54:37;;;;;;;5.90;4.78;;;20.10;99.90;;;;;;5109067;28;20083;-88
2022/09/13 09:57:07;;;;;;;6.22;5.55;;;20.20;99.90;;;;;;5092734;28;20038;-92
2022/09/13 09:59:34;;;;;;;7.03;6.38;;;20.20;99.90;;;;;;5106067;28;20057;-89
2022/09/13 10:02:13;;;;;;;6.53;4.97;;;20.20;99.90;;;;;;5116097;28;20031;-91
2022/09/13 10:04:39;;;;;;;5.43;4.32;;;;;;;;;;5126773;28;20028;-88
2022/09/13 10:07:31;;;;;;;6.13;4.90;;;20.40;99.90;;;;;;5126659;28;20115;-92
2022/09/13 10:10:21;;;;;;;5.22;4.75;;;20.40;99.90;;;;;;5142402;27;20358;-88
2022/09/13 10:12:55;;;;;;;5.10;4.60;;;20.50;99.90;;;;;;5126001;28;20035;-87
2022/09/13 10:15:24;;;;;;;12.27;5.85;;;20.50;99.90;;;;;;5125954;28;20039;-88
2022/09/13 10:18:15;;;;;;;8.80;5.38;;;20.50;99.90;;;;;;5127015;28;20389;-87
2022/09/13 10:20:59;;;;;;;6.03;5.45;;;20.50;99.90;;;;;;5125032;28;20042;-88
2022/09/13 10:23:26;;;;;;;6.57;5.93;;;20.60;99.90;;;;;;5105595;28;20047;-88
2022/09/13 10:26:13;;;;;;;11.60;6.65;;;20.60;99.90;;;;;;5127894;28;20367;-89
2022/09/13 10:28:59;;;;;;;6.38;5.68;;;20.60;99.90;;;;;;5127016;28;20023;-88
2022/09/13 10:31:35;;;;;;;5.45;4.95;;;20.70;99.90;;;;;;5125111;28;20470;-88
2022/09/13 10:34:45;;;;;;;5.15;4.72;;;20.80;99.90;;;;;;5126616;28;20024;-88
2022/09/13 10:37:20;;;;;;;7.00;5.03;;;20.90;99.90;;;;;;5109274;28;20092;-88
2022/09/13 10:39:58;;;;;;;6.55;5.32;;;21.00;99.90;;;;;;5125215;28;20423;-89
2022/09/13 10:42:26;;;;;;;4.95;4.30;;;21.10;99.90;;;;;;5127036;28;20020;-89
2022/09/13 10:45:05;;;;;;;5.97;5.13;;;21.20;99.90;;;;;;5109147;28;20020;-88
2022/09/13 10:47:43;;;;;;;4.90;4.50;;;21.30;99.90;;;;;;5108534;28;20127;-89
2022/09/13 10:50:20;;;;;;;4.97;4.47;;;21.30;99.90;;;;;;5125093;28;20085;-89
2022/09/13 10:52:54;;;;;;;5.22;4.72;;;21.40;99.90;;;;;;5125882;28;20030;-88
2022/09/13 10:55:25;;;;;;;4.47;4.13;;;21.50;99.90;;;;;;5104777;28;20047;-88
2022/09/13 10:58:06;;;;;;;6.75;4.22;;;21.60;99.90;;;;;;5117703;28;20031;-88
2022/09/13 11:00:41;;;;;;;5.07;4.57;;;21.70;99.90;;;;;;5126107;28;20032;-88
2022/09/13 11:03:12;;;;;;;8.13;4.35;;;21.80;99.90;;;;;;5125999;28;20047;-89
2022/09/13 11:06:01;;;;;;;6.47;5.88;;;21.90;99.90;;;;;;5130134;28;20026;-88
2022/09/13 11:08:54;;;;;;;5.00;4.07;;;22.00;99.90;;;;;;5150982;27;20031;-89
2022/09/13 11:11:42;;;;;;;8.35;3.70;;;22.10;99.90;;;;;;5140747;27;20115;-88
2022/09/13 11:14:31;;;;;;;5.43;4.03;;;22.20;99.90;;;;;;5130340;28;20091;-89
2022/09/13 11:17:19;;;;;;;4.32;3.92;;;22.30;99.90;;;;;;5130246;28;20474;-89
2022/09/13 11:20:17;;;;;;;4.65;3.80;;;22.30;99.90;;;;;;5129206;28;20054;-88
2022/09/13 11:23:24;;;;;;;4.82;4.43;;;22.20;99.90;;;;;;5132454;27;20039;-89
2022/09/13 11:26:11;;;;;;;4.32;3.78;;;22.10;99.90;;;;;;5110330;28;20027;-89
2022/09/13 11:28:56;;;;;;;6.47;4.47;;;22.10;99.90;;;;;;5108701;28;20049;-89
2022/09/13 11:31:40;;;;;;;4.03;3.70;;;22.20;99.90;;;;;;5108541;28;20032;-88
2022/09/13 11:34:22;;;;;;;4.95;3.95;;;22.30;99.90;;;;;;5108438;28;20470;-89
2022/09/13 11:37:23;;;;;;;3.55;3.20;;;22.40;99.90;;;;;;5125117;28;20034;-89
2022/09/13 11:40:24;;;;;;;5.95;3.47;;;22.40;99.90;;;;;;5125238;28;20044;-90
2022/09/13 11:42:53;;;;;;;4.68;3.30;;;22.50;99.90;;;;;;5121565;28;20067;-89
2022/09/13 11:45:27;;;;;;;6.53;3.28;;;22.50;99.90;;;;;;5111748;28;20042;-91
2022/09/13 11:48:12;;;;;;;2.83;2.55;;;22.60;99.90;;;;;;5128712;28;20027;-89
2022/09/13 11:51:05;;;;;;;3.13;2.90;;;22.60;99.90;;;;;;5111535;28;20030;-89
2022/09/13 11:53:49;;;;;;;3.65;3.35;;;22.60;99.90;;;;;;5128474;28;20428;-88
2022/09/13 11:56:36;;;;;;;4.00;2.75;;;22.50;99.90;;;;;;5128288;28;20035;-89
2022/09/13 11:59:12;;;;;;;3.97;3.55;;;22.50;99.90;;;;;;5128462;28;20397;-89
2022/09/13 12:01:44;;;;;;;7.70;2.60;;;22.60;99.90;;;;;;5111437;28;20048;-89
2022/09/13 12:04:22;;;;;;;5.30;2.40;;;22.60;99.90;;;;;;5128321;28;20474;-89
2022/09/13 12:07:01;;;;;;;5.53;3.42;;;22.60;99.90;;;;;;5128177;28;20094;-89
2022/09/13 12:09:35;;;;;;;4.13;3.03;;;22.60;99.90;;;;;;5129362;28;20092;-89
2022/09/13 12:12:05;;;;;;;3.75;3.22;;;22.70;99.90;;;;;;5111019;28;20085;-89
2022/09/13 12:15:04;;;;;;;3.78;3.20;;;22.70;99.90;;;;;;5127021;28;20032;-89
2022/09/13 12:17:43;;;;;;;2.85;2.63;;;22.80;99.90;;;;;;5129065;28;20048;-89
2022/09/13 12:20:50;;;;;;;3.63;2.78;;;22.80;99.90;;;;;;5129270;28;20051;-89
2022/09/13 12:23:31;;;;;;;2.92;2.60;;;22.90;99.90;;;;;;5089428;28;20167;-88
2022/09/13 12:26:02;;;;;;;3.47;3.17;;;22.90;99.90;;;;;;5125203;28;20371;-89
2022/09/13 12:28:42;;;;;;;7.25;3.33;;;23.00;99.90;;;;;;5128792;28;20098;-89
2022/09/13 12:31:27;;;;;;;3.33;2.67;;;23.00;99.90;;;;;;5110602;28;20019;-89
2022/09/13 12:33:54;;;;;;;4.18;3.08;;;23.00;99.90;;;;;;5127848;28;20028;-89
2022/09/13 12:37:00;;;;;;;2.40;2.20;;;23.00;99.90;;;;;;5127637;28;20042;-89
2022/09/13 12:39:32;;;;;;;2.85;2.65;;;23.00;99.90;;;;;;5127274;28;20049;-88
2022/09/13 12:42:17;;;;;;;6.50;2.90;;;22.90;99.90;;;;;;5127714;28;20027;-89
2022/09/13 12:44:58;;;;;;;4.32;3.20;;;22.90;99.90;;;;;;5128665;28;20453;-89
2022/09/13 12:47:37;;;;;;;5.18;3.03;;;22.80;99.90;;;;;;5127582;28;20028;-89
2022/09/13 12:50:15;;;;;;;4.22;2.60;;;22.80;99.90;;;;;;5107052;28;20062;-89
2022/09/13 12:52:47;;;;;;;3.83;2.63;;;22.70;99.90;;;;;;5106560;28;20039;-89
2022/09/13 12:55:19;;;;;;;3.15;2.53;;;22.80;99.90;;;;;;5106770;28;20394;-89
2022/09/13 12:58:18;;;;;;;6.00;2.70;;;22.80;99.90;;;;;;5106581;28;20039;-89
2022/09/13 13:01:12;;;;;;;2.85;2.53;;;22.80;99.90;;;;;;5106695;28;20032;-89
2022/09/13 13:03:48;;;;;;;4.47;3.10;;;22.70;99.90;;;;;;5118875;28;20044;-89
2022/09/13 13:06:17;;;;;;;4.55;3.67;;;22.70;99.90;;;;;;5107843;28;20024;-89
2022/09/13 13:08:50;;;;;;;3.97;3.58;;;22.70;99.90;;;;;;5107636;28;20027;-90
2022/09/13 13:11:23;;;;;;;3.40;3.10;;;22.70;99.90;;;;;;5106976;28;20035;-89
2022/09/13 13:13:54;;;;;;;4.75;3.50;;;22.70;99.90;;;;;;5089635;28;20036;-89
2022/09/13 13:16:20;;;;;;;4.85;3.47;;;22.80;99.90;;;;;;5106577;28;20057;-88
2022/09/13 13:18:47;;;;;;;4.10;3.58;;;22.80;99.90;;;;;;5089577;28;20016;-90
2022/09/13 13:21:39;;;;;;;3.67;3.22;;;22.80;99.90;;;;;;5089720;28;20043;-90
2022/09/13 13:24:20;;;;;;;3.83;3.28;;;22.90;99.90;;;;;;5106412;28;20052;-90
2022/09/13 13:26:50;;;;;;;6.63;3.58;;;22.90;99.90;;;;;;5106318;28;20486;-90
2022/09/13 13:29:27;;;;;;;5.63;3.85;;;22.90;99.90;;;;;;5106262;28;20056;-90
2022/09/13 13:31:56;;;;;;;3.88;3.47;;;22.90;99.90;;;;;;5106396;28;20126;-90